createdAt,value
2022-08-26T00:02:29.945Z,20.46
2022-08-26T00:05:34.928Z,21.06
2022-08-26T00:08:49.887Z,21.11
2022-08-26T00:11:55.876Z,21.43
2022-08-26T00:15:00.393Z,21.47
2022-08-26T00:18:16.947Z,21.05
2022-08-26T00:21:27.451Z,21.08
2022-08-26T00:24:32.381Z,21.35
2022-08-26T00:27:37.555Z,21.77
2022-08-26T00:30:43.351Z,21.79
2022-08-26T00:33:50.403Z,21.44
2022-08-26T00:36:55.416Z,21.61
2022-08-26T00:40:00.997Z,21.42
2022-08-26T00:43:10.147Z,21.62
2022-08-26T00:46:30.169Z,22.04
2022-08-26T00:49:40.543Z,22.40
2022-08-26T00:52:47.474Z,22.29
2022-08-26T00:56:04.958Z,22.42
2022-08-26T00:59:13.103Z,22.30
2022-08-26T01:02:21.158Z,22.44
2022-08-26T01:05:26.466Z,23.29
2022-08-26T01:08:32.184Z,24.74
2022-08-26T01:11:37.565Z,26.36
2022-08-26T01:14:42.445Z,27.05
2022-08-26T01:17:52.034Z,28.39
2022-08-26T01:21:15.858Z,28.80
2022-08-26T01:24:22.400Z,28.10
2022-08-26T01:27:32.543Z,28.78
2022-08-26T01:30:41.741Z,29.13
2022-08-26T01:34:09.058Z,29.84
2022-08-26T01:37:18.178Z,27.55
2022-08-26T01:40:27.711Z,28.27
2022-08-26T01:43:35.300Z,29.57
2022-08-26T01:46:39.960Z,27.86
2022-08-26T01:49:47.712Z,25.93
2022-08-26T01:52:56.390Z,26.44
2022-08-26T01:56:03.343Z,27.26
2022-08-26T01:59:13.213Z,27.40
2022-08-26T02:02:18.955Z,26.40
2022-08-26T02:05:23.346Z,27.10
2022-08-26T02:08:42.684Z,26.80
2022-08-26T02:11:48.614Z,26.35
2022-08-26T02:14:59.120Z,27.02
2022-08-26T02:18:06.456Z,26.46
2022-08-26T02:21:14.349Z,26.05
2022-08-26T02:24:23.342Z,26.22
2022-08-26T02:27:34.786Z,25.68
2022-08-26T02:30:41.378Z,26.23
2022-08-26T02:33:46.089Z,25.86
2022-08-26T02:36:51.059Z,26.41
2022-08-26T02:39:55.685Z,26.53
2022-08-26T02:43:01.697Z,26.05
2022-08-26T02:46:06.890Z,26.17
2022-08-26T02:49:11.786Z,26.22
2022-08-26T02:52:16.580Z,25.92
2022-08-26T02:55:21.283Z,25.70
2022-08-26T02:58:29.355Z,24.65
2022-08-26T03:01:37.030Z,25.09
2022-08-26T03:04:58.033Z,25.13
2022-08-26T03:08:07.886Z,25.03
2022-08-26T03:11:15.049Z,25.22
2022-08-26T03:14:19.999Z,24.85
2022-08-26T03:17:25.307Z,24.91
2022-08-26T03:20:31.812Z,24.89
2022-08-26T03:23:36.421Z,24.88
2022-08-26T03:26:52.425Z,24.64
2022-08-26T03:30:16.533Z,24.78
2022-08-26T03:33:21.119Z,24.70
2022-08-26T03:36:25.617Z,24.48
2022-08-26T03:39:31.496Z,24.39
2022-08-26T03:42:41.672Z,24.53
2022-08-26T03:45:49.956Z,24.09
2022-08-26T03:48:56.423Z,23.61
2022-08-26T03:52:01.052Z,23.48
2022-08-26T03:55:09.894Z,23.15
2022-08-26T03:58:14.801Z,22.43
2022-08-26T04:01:19.879Z,22.45
2022-08-26T04:04:24.561Z,21.60
2022-08-26T04:07:29.562Z,21.67
2022-08-26T04:10:39.301Z,21.60
2022-08-26T04:13:44.317Z,21.64
2022-08-26T04:16:49.701Z,21.90
2022-08-26T04:19:55.332Z,21.92
2022-08-26T04:23:00.378Z,21.66
2022-08-26T04:26:05.111Z,21.44
2022-08-26T04:29:13.547Z,21.34
2022-08-26T04:32:18.494Z,21.05
2022-08-26T04:35:26.045Z,20.84
2022-08-26T04:38:31.310Z,20.58
2022-08-26T04:41:35.898Z,20.38
2022-08-26T04:44:42.021Z,20.44
2022-08-26T04:47:47.669Z,20.38
2022-08-26T04:50:52.742Z,20.63
2022-08-26T04:53:58.513Z,20.13
2022-08-26T04:57:03.446Z,20.25
2022-08-26T05:00:14.401Z,20.33
2022-08-26T05:03:20.595Z,20.27
2022-08-26T05:06:25.532Z,20.18
2022-08-26T05:09:30.495Z,20.00
2022-08-26T05:12:35.545Z,20.02
2022-08-26T05:15:40.345Z,20.00
2022-08-26T05:18:46.567Z,20.09
2022-08-26T05:21:51.090Z,20.27
2022-08-26T05:24:56.014Z,20.22
2022-08-26T05:28:00.887Z,19.84
2022-08-26T05:31:14.788Z,19.83
2022-08-26T05:34:21.861Z,19.91
2022-08-26T05:37:27.790Z,19.82
2022-08-26T05:40:37.674Z,19.77
2022-08-26T05:43:42.821Z,19.53
2022-08-26T05:46:47.455Z,19.36
2022-08-26T05:49:52.096Z,19.66
2022-08-26T05:52:57.162Z,19.77
2022-08-26T05:56:01.789Z,19.67
2022-08-26T05:59:06.815Z,19.84
2022-08-26T06:02:18.936Z,19.92
2022-08-26T06:05:23.900Z,20.07
2022-08-26T06:08:29.303Z,20.05
2022-08-26T06:11:34.739Z,20.34
2022-08-26T06:14:39.225Z,20.22
2022-08-26T06:17:43.994Z,20.26
2022-08-26T06:20:57.999Z,20.30
2022-08-26T06:24:33.480Z,20.07
2022-08-26T06:27:38.506Z,20.32
2022-08-26T06:30:43.629Z,20.56
2022-08-26T06:33:48.388Z,20.52
2022-08-26T06:36:54.495Z,20.45
2022-08-26T06:39:59.385Z,20.21
2022-08-26T06:43:04.128Z,19.99
2022-08-26T06:46:11.960Z,20.29
2022-08-26T06:49:17.396Z,20.48
2022-08-26T06:52:24.582Z,20.84
2022-08-26T06:55:29.670Z,21.14
2022-08-26T06:58:36.195Z,21.06
2022-08-26T07:01:47.013Z,20.82
2022-08-26T07:04:54.394Z,20.99
2022-08-26T07:08:01.610Z,21.20
2022-08-26T07:11:08.550Z,20.81
2022-08-26T07:14:14.005Z,20.80
2022-08-26T07:17:18.518Z,20.46
2022-08-26T07:20:25.091Z,20.16
2022-08-26T07:23:29.620Z,20.02
2022-08-26T07:26:34.220Z,20.25
2022-08-26T07:29:40.779Z,20.10
2022-08-26T07:32:45.605Z,20.16
2022-08-26T07:35:50.231Z,20.25
2022-08-26T07:38:55.897Z,20.05
2022-08-26T07:42:07.278Z,19.79
2022-08-26T07:45:12.762Z,19.95
2022-08-26T07:48:18.840Z,19.97
2022-08-26T07:51:26.972Z,19.92
2022-08-26T07:54:32.596Z,19.79
2022-08-26T07:57:40.373Z,19.99
2022-08-26T08:00:49.387Z,20.07
2022-08-26T08:03:56.668Z,20.13
2022-08-26T08:07:02.227Z,20.13
2022-08-26T08:10:11.593Z,19.93
2022-08-26T08:13:17.233Z,19.93
2022-08-26T08:16:23.687Z,20.28
2022-08-26T08:19:36.713Z,19.65
2022-08-26T08:22:43.450Z,19.32
2022-08-26T08:25:49.963Z,19.30
2022-08-26T08:28:57.538Z,18.91
2022-08-26T08:32:02.206Z,18.80
2022-08-26T08:35:10.836Z,18.74
2022-08-26T08:38:15.861Z,18.85
2022-08-26T08:42:23.705Z,18.77
2022-08-26T08:46:07.178Z,18.81
2022-08-26T08:49:14.920Z,18.97
2022-08-26T08:52:28.580Z,19.07
2022-08-26T08:55:45.405Z,18.99
2022-08-26T08:58:58.137Z,18.92
2022-08-26T09:02:12.891Z,18.91
2022-08-26T09:05:34.956Z,18.95
2022-08-26T09:08:42.070Z,18.88
2022-08-26T09:11:47.547Z,18.88
2022-08-26T09:14:57.600Z,18.52
2022-08-26T09:18:19.667Z,18.41
2022-08-26T09:21:26.206Z,18.26
2022-08-26T09:24:41.909Z,18.20
2022-08-26T09:27:55.220Z,18.05
2022-08-26T09:31:12.469Z,18.02
2022-08-26T09:34:26.680Z,18.12
2022-08-26T09:37:43.914Z,17.90
2022-08-26T09:41:20.824Z,17.57
2022-08-26T09:44:25.740Z,17.28
2022-08-26T09:47:40.976Z,17.39
2022-08-26T09:50:59.056Z,17.07
2022-08-26T09:54:05.761Z,17.19
2022-08-26T09:57:28.446Z,17.09
2022-08-26T10:00:54.707Z,17.04
2022-08-26T10:04:13.217Z,17.01
2022-08-26T10:07:40.106Z,16.48
2022-08-26T10:10:46.766Z,16.28
2022-08-26T10:14:05.757Z,16.47
2022-08-26T10:17:36.972Z,16.55
2022-08-26T10:20:58.909Z,16.26
2022-08-26T10:24:05.949Z,16.22
2022-08-26T10:27:31.995Z,16.00
2022-08-26T10:30:42.802Z,15.86
2022-08-26T10:33:47.678Z,16.03
2022-08-26T10:37:13.604Z,16.01
2022-08-26T10:40:31.980Z,15.96
2022-08-26T10:44:00.240Z,15.95
2022-08-26T10:47:16.751Z,15.91
2022-08-26T10:50:25.849Z,15.94
2022-08-26T10:53:51.465Z,15.61
2022-08-26T10:57:18.472Z,15.27
2022-08-26T11:01:16.150Z,15.27
2022-08-26T11:04:42.371Z,15.43
2022-08-26T11:07:53.622Z,15.63
2022-08-26T11:11:01.301Z,15.75
2022-08-26T11:14:08.404Z,15.81
2022-08-26T11:17:13.069Z,15.60
2022-08-26T11:20:42.587Z,15.73
2022-08-26T11:23:50.524Z,15.82
2022-08-26T11:26:56.744Z,15.76
2022-08-26T11:30:10.073Z,15.57
2022-08-26T11:33:51.816Z,15.50
2022-08-26T11:36:58.331Z,15.53
2022-08-26T11:40:05.764Z,15.72
2022-08-26T11:43:19.642Z,15.58
2022-08-26T11:46:36.591Z,15.59
2022-08-26T11:49:41.813Z,15.70
2022-08-26T11:52:56.448Z,15.28
2022-08-26T11:56:07.186Z,15.57
2022-08-26T11:59:16.382Z,15.71
2022-08-26T12:02:22.018Z,15.53
2022-08-26T12:05:38.205Z,15.55
2022-08-26T12:08:46.155Z,15.54
2022-08-26T12:11:51.182Z,15.31
2022-08-26T12:15:16.515Z,15.15
2022-08-26T12:18:29.590Z,15.12
2022-08-26T12:21:35.594Z,15.10
2022-08-26T12:24:49.464Z,15.32
2022-08-26T12:27:54.210Z,15.36
2022-08-26T12:31:07.882Z,15.14
2022-08-26T12:34:18.760Z,14.99
2022-08-26T12:37:23.832Z,14.83
2022-08-26T12:40:46.303Z,14.94
2022-08-26T12:43:50.981Z,15.15
2022-08-26T12:47:01.942Z,15.14
2022-08-26T12:50:35.118Z,15.15
2022-08-26T12:53:44.555Z,15.21
2022-08-26T12:56:49.280Z,15.19
2022-08-26T13:00:28.707Z,15.30
2022-08-26T13:03:36.133Z,15.27
2022-08-26T13:06:41.248Z,15.23
2022-08-26T13:09:45.636Z,15.16
2022-08-26T13:12:50.284Z,15.11
2022-08-26T13:15:55.047Z,15.15
2022-08-26T13:19:05.851Z,15.07
2022-08-26T13:22:16.116Z,14.85
2022-08-26T13:25:20.653Z,14.65
2022-08-26T13:28:25.128Z,14.56
2022-08-26T13:31:32.442Z,14.43
2022-08-26T13:34:39.469Z,14.26
2022-08-26T13:37:43.930Z,14.01
2022-08-26T13:40:51.020Z,13.96
2022-08-26T13:43:55.631Z,13.90
2022-08-26T13:47:00.568Z,13.93
2022-08-26T13:50:06.789Z,13.99
2022-08-26T13:53:11.613Z,13.92
2022-08-26T13:56:16.130Z,13.83
2022-08-26T13:59:20.759Z,13.52
2022-08-26T14:02:25.562Z,13.42
2022-08-26T14:05:30.828Z,13.41
2022-08-26T14:08:35.613Z,13.52
2022-08-26T14:11:54.574Z,13.33
2022-08-26T14:14:59.528Z,13.21
2022-08-26T14:18:07.756Z,13.38
2022-08-26T14:21:14.786Z,13.32
2022-08-26T14:24:19.423Z,13.00
2022-08-26T14:27:24.175Z,13.06
2022-08-26T14:30:30.040Z,13.12
2022-08-26T14:33:38.924Z,13.08
2022-08-26T14:36:44.311Z,12.97
2022-08-26T14:39:49.501Z,12.84
2022-08-26T14:42:56.044Z,12.91
2022-08-26T14:46:03.516Z,12.67
2022-08-26T14:49:10.741Z,12.71
2022-08-26T14:52:15.651Z,12.71
2022-08-26T14:55:20.388Z,12.79
2022-08-26T14:58:25.238Z,12.67
2022-08-26T15:01:35.885Z,12.82
2022-08-26T15:04:41.421Z,13.07
2022-08-26T15:07:45.835Z,12.80
2022-08-26T15:10:50.562Z,12.71
2022-08-26T15:13:55.352Z,12.77
2022-08-26T15:17:00.052Z,12.76
2022-08-26T15:20:08.708Z,12.82
2022-08-26T15:23:13.280Z,12.80
2022-08-26T15:26:18.826Z,12.84
2022-08-26T15:29:24.775Z,12.45
2022-08-26T15:32:30.349Z,12.51
2022-08-26T15:35:36.052Z,12.42
2022-08-26T15:38:45.390Z,12.43
2022-08-26T15:41:50.118Z,12.45
2022-08-26T15:44:54.852Z,12.49
2022-08-26T15:48:01.579Z,12.45
2022-08-26T15:51:12.617Z,12.65
2022-08-26T15:54:18.671Z,12.57
2022-08-26T15:57:23.350Z,12.51
2022-08-26T16:00:28.271Z,12.35
2022-08-26T16:03:32.819Z,12.36
2022-08-26T16:06:40.002Z,12.42
2022-08-26T16:09:44.688Z,12.45
2022-08-26T16:12:51.132Z,12.41
2022-08-26T16:15:55.775Z,12.39
2022-08-26T16:19:05.551Z,12.44
2022-08-26T16:22:11.969Z,12.53
2022-08-26T16:25:16.709Z,12.48
2022-08-26T16:28:26.243Z,12.32
2022-08-26T16:31:31.239Z,12.20
2022-08-26T16:34:36.853Z,12.12
2022-08-26T16:37:41.333Z,12.08
2022-08-26T16:40:46.217Z,12.16
2022-08-26T16:43:50.899Z,12.18
2022-08-26T16:46:58.757Z,12.08
2022-08-26T16:50:05.001Z,11.90
2022-08-26T16:56:23.995Z,11.96
2022-08-26T16:59:38.403Z,11.94
2022-08-26T17:02:43.021Z,12.08
2022-08-26T17:05:47.719Z,11.91
2022-08-26T17:08:53.352Z,11.82
2022-08-26T17:11:57.995Z,11.71
2022-08-26T17:15:02.491Z,11.63
2022-08-26T17:18:08.879Z,11.82
2022-08-26T17:21:15.303Z,11.92
2022-08-26T17:24:20.091Z,11.85
2022-08-26T17:27:24.787Z,11.88
2022-08-26T17:30:30.918Z,11.85
2022-08-26T17:33:35.747Z,11.81
2022-08-26T17:36:42.788Z,11.83
2022-08-26T17:39:47.332Z,11.84
2022-08-26T17:42:53.267Z,11.88
2022-08-26T17:46:04.675Z,12.01
2022-08-26T17:49:12.779Z,11.92
2022-08-26T17:52:17.727Z,11.98
2022-08-26T17:55:22.632Z,11.91
2022-08-26T17:58:27.523Z,12.07
2022-08-26T18:01:33.867Z,12.20
2022-08-26T18:04:38.544Z,12.10
2022-08-26T18:07:43.987Z,12.19
2022-08-26T18:10:48.669Z,12.07
2022-08-26T18:13:54.108Z,12.07
2022-08-26T18:16:58.929Z,12.22
2022-08-26T18:20:03.942Z,12.20
2022-08-26T18:23:09.096Z,12.08
2022-08-26T18:26:32.536Z,11.95
2022-08-26T18:29:37.270Z,11.78
2022-08-26T18:32:51.515Z,12.09
2022-08-26T18:35:56.821Z,12.04
2022-08-26T18:39:02.098Z,11.98
2022-08-26T18:42:07.245Z,11.76
2022-08-26T18:45:15.959Z,11.76
2022-08-26T18:48:20.861Z,11.85
2022-08-26T18:51:30.447Z,11.94
2022-08-26T18:54:35.191Z,12.17
2022-08-26T18:57:40.206Z,12.25
2022-08-26T19:00:44.755Z,12.27
2022-08-26T19:03:49.344Z,12.04
2022-08-26T19:06:54.792Z,11.95
2022-08-26T19:09:59.440Z,12.12
2022-08-26T19:13:04.247Z,12.22
2022-08-26T19:16:25.147Z,12.09
2022-08-26T19:19:30.343Z,12.05
2022-08-26T19:22:34.989Z,12.10
2022-08-26T19:25:53.428Z,12.03
2022-08-26T19:28:58.276Z,12.11
2022-08-26T19:32:04.444Z,11.99
2022-08-26T19:35:10.149Z,12.04
2022-08-26T19:38:16.409Z,12.04
2022-08-26T19:41:29.485Z,11.97
2022-08-26T19:45:00.512Z,11.82
2022-08-26T19:48:06.439Z,11.61
2022-08-26T19:51:13.722Z,11.11
2022-08-26T19:54:18.540Z,11.19
2022-08-26T19:57:23.054Z,11.67
2022-08-26T20:00:29.844Z,11.80
2022-08-26T20:03:35.327Z,11.79
2022-08-26T20:06:40.156Z,11.85
2022-08-26T20:09:44.889Z,11.75
2022-08-26T20:12:52.758Z,11.46
2022-08-26T20:15:57.585Z,11.48
2022-08-26T20:19:21.176Z,11.38
2022-08-26T20:22:26.602Z,11.47
2022-08-26T20:25:33.314Z,11.79
2022-08-26T20:28:38.130Z,12.04
2022-08-26T20:31:44.886Z,12.06
2022-08-26T20:34:50.338Z,11.87
2022-08-26T20:37:55.050Z,11.49
2022-08-26T20:41:00.042Z,11.83
2022-08-26T20:44:05.845Z,11.96
2022-08-26T20:47:10.404Z,11.67
2022-08-26T20:50:15.319Z,11.56
2022-08-26T20:53:19.920Z,11.91
2022-08-26T20:56:29.061Z,11.98
2022-08-26T20:59:34.374Z,12.15
2022-08-26T21:02:39.266Z,12.34
2022-08-26T21:05:44.202Z,12.24
2022-08-26T21:08:49.309Z,12.27
2022-08-26T21:11:55.710Z,12.26
2022-08-26T21:15:01.477Z,12.28
2022-08-26T21:18:07.221Z,12.23
2022-08-26T21:21:12.701Z,12.14
2022-08-26T21:24:17.977Z,12.09
2022-08-26T21:27:26.288Z,12.10
2022-08-26T21:30:30.902Z,12.21
2022-08-26T21:33:36.253Z,12.13
2022-08-26T21:36:40.662Z,12.16
2022-08-26T21:39:45.583Z,12.16
2022-08-26T21:42:50.466Z,12.22
2022-08-26T21:45:57.549Z,12.20
2022-08-26T21:49:04.579Z,12.20
2022-08-26T21:52:09.283Z,12.27
2022-08-26T21:55:13.955Z,12.24
2022-08-26T21:58:18.490Z,12.24
2022-08-26T22:01:26.064Z,12.12
2022-08-26T22:04:30.669Z,12.16
2022-08-26T22:07:35.505Z,12.21
2022-08-26T22:10:43.236Z,12.40
2022-08-26T22:13:49.749Z,12.51
2022-08-26T22:16:55.603Z,12.62
2022-08-26T22:20:00.521Z,12.55
2022-08-26T22:23:06.410Z,12.59
2022-08-26T22:26:11.825Z,12.69
2022-08-26T22:29:16.787Z,12.76
2022-08-26T22:32:21.427Z,12.64
2022-08-26T22:35:29.312Z,12.53
2022-08-26T22:38:35.316Z,12.87
2022-08-26T22:41:40.965Z,12.98
2022-08-26T22:44:45.393Z,13.10
2022-08-26T22:47:50.172Z,13.44
2022-08-26T22:51:00.197Z,13.52
2022-08-26T22:54:05.827Z,13.57
2022-08-26T22:57:10.372Z,13.53
2022-08-26T23:00:15.820Z,13.44
2022-08-26T23:03:20.733Z,13.40
2022-08-26T23:06:27.230Z,13.63
2022-08-26T23:09:32.350Z,13.84
2022-08-26T23:12:38.634Z,13.95
2022-08-26T23:15:45.545Z,13.96
2022-08-26T23:18:51.254Z,14.09
2022-08-26T23:21:57.189Z,14.15
2022-08-26T23:25:01.627Z,14.30
2022-08-26T23:28:12.936Z,14.43
2022-08-26T23:31:17.203Z,14.32
2022-08-26T23:34:40.448Z,14.33
2022-08-26T23:37:48.855Z,14.52
2022-08-26T23:40:53.851Z,14.46
2022-08-26T23:44:03.274Z,14.71
2022-08-26T23:47:09.098Z,14.91
2022-08-26T23:50:13.876Z,14.90
2022-08-26T23:53:21.915Z,14.95
2022-08-26T23:56:26.951Z,14.94
2022-08-26T23:59:31.563Z,15.00
